KNJK/NJK METAR and TAF weather

Enter ICAO airport designator
Station Type Date Time Source
KNJK METAR 2022/05/24 10:56 UTC NOAA

KNJK 241056Z AUTO 13005KT CLR 19/14 A2971 RMK AO2 SLP074 T01940139 $


Station Type Date Time Source
KNJK Decoded METAR 2022/05/24 10:56 UTC NOAA

El Centro, Naval Air Facility, CA, United States (KNJK) 32-49-30N 115-39-38W -13M
May 24, 2022 - 06:56 AM EDT / 2022.05.24 1056 UTC
Wind: from the SE (130 degrees) at 6 MPH (5 KT):0
Sky conditions: clear
Temperature: 66.9 F (19.4 C)
Dew Point: 57.0 F (13.9 C)
Relative Humidity: 70%
Pressure (altimeter): 29.71 in. Hg (1006 hPa)
ob: KNJK 241056Z AUTO 13005KT CLR 19/14 A2971 RMK AO2 SLP074 T01940139
cycle: 11

Station Type Date Time Source
KNJK TAF 2022/05/24 07:03 UTC NOAA

TAF KNJK 2407/2507 VRB06KT 9999 SKC QNH2962INS
FM250000 15011KT 9999 SKC QNH2964INS
FM250600 VRB06KT 9999 SKC QNH2968INS AUTOMATED SENSOR METWATCH 2407 TIL 2413 T18/2412Z T38/2500Z FS30197

Example: see airport list